Aeroporto :
LOGIN :

Iscrizione | Disclaimer

   EN    FR    IT 

 










Sommario :    VFR   VFR Marginale   IFR   IFR Intensivo   IFR Molto Intensivo
Visibilità : 
Base nubi : 
>= 8 km
>= 3000ft
5 / 8 km
1000 / 3000 ft
1500m / 5 km
500 / 1000 ft
800 / 1500m
200 / 500 ft
< 800m
< 200 ft
Simboli :   Temporali  Nebbia  Neve Forte  Precipitazioni Forti  Vento > 20 kt
SIGMETs :   Varie  Temporali  Ghiacco  Turbolenza  Onda orograficha  Ceneri Vulcaniche






- Altitudine del aeroporto : 529 ft
- Codice IATA : CHR


LFLX - Chateauroux

ULTIMO METAR :
  • 270800Z AUTO 23012KT 9999 SCT008 01/00 Q0994 NOSIG

METARs OBSOLETI :
  • 270730Z AUTO 23011KT CAVOK 01/00 Q0993 NOSIG
  • 270700Z AUTO 23012KT 9999 FEW010 01/00 Q0993 NOSIG
  • 270630Z AUTO 23010KT CAVOK 01/00 Q0993 NOSIG
  • 270600Z AUTO 24009KT 9999 FEW011 01/00 Q0993 NOSIG
  • 270530Z AUTO 24011KT 9999 SCT012 BKN033 BKN044 02/01 Q0993 NOSIG

TAF TAF LFLX
Valido dal 27 a 06 ore il 28 a 12 ore UTC


270500Z 2706/2812 24015KT 9999 FEW030 SCT050
TEMPO 2710/2806 4000 SHRA BKN014 SCT025CB
PROB30
TEMPO 2710/2721 2500 -SHRASN
PROB40
TEMPO 2715/2717 29015G30KT



MetMap, La meteo Aeronautica in un colpo d'occhio ! - Copyright ORBIFLY Dicembre 2007 - Disclaimer

ORBIFLY MET'MAP TEAM :

Programmazione e sviluppo : Alexandra Zaïnal
Concezione : Baudouin d'Aumeries
Aiuto per la programmazione : Marc-Olivier Méhu
Supporto tecnico e logistico : Manuel Goepfert
Aiuto per la traduzione : Arnaldo La Scala

Contatto : metmap@orbifly.com




FONTI E CREDITI :

   NOAA